createdAt,value
2022-11-14T00:00:33.703Z,97559.03
2022-11-14T00:03:20.146Z,97561.53
2022-11-14T00:06:08.417Z,97555.09
2022-11-14T00:08:54.950Z,97559.19
2022-11-14T00:11:41.994Z,97555.56
2022-11-14T00:14:28.556Z,97566.03
2022-11-14T00:17:15.374Z,97577.63
2022-11-14T00:20:02.794Z,97576.66
2022-11-14T00:22:49.328Z,97580.28
2022-11-14T00:25:36.031Z,97572.03
2022-11-14T00:28:22.451Z,97578.00
2022-11-14T00:31:11.531Z,97575.03
2022-11-14T00:33:58.215Z,97575.88
2022-11-14T00:36:45.135Z,97562.28
2022-11-14T00:39:32.059Z,97562.44
2022-11-14T00:42:18.530Z,97561.44
2022-11-14T00:45:06.026Z,97559.31
2022-11-14T00:47:52.478Z,97564.63
2022-11-14T00:50:39.417Z,97565.94
2022-11-14T00:53:25.831Z,97572.38
2022-11-14T00:56:12.662Z,97562.59
2022-11-14T00:58:59.075Z,97559.09
2022-11-14T01:01:45.879Z,97561.06
2022-11-14T01:04:32.687Z,97549.47
2022-11-14T01:07:19.142Z,97551.13
2022-11-14T01:10:06.190Z,97545.81
2022-11-14T01:12:52.852Z,97541.34
2022-11-14T01:15:42.450Z,97537.16
2022-11-14T01:18:30.421Z,97531.31
2022-11-14T01:21:17.354Z,97537.34
2022-11-14T01:24:04.654Z,97533.16
2022-11-14T01:26:51.543Z,97526.53
2022-11-14T01:29:37.897Z,97527.56
2022-11-14T01:32:25.870Z,97523.06
2022-11-14T01:35:12.792Z,97520.56
2022-11-14T01:37:59.144Z,97518.22
2022-11-14T01:40:46.758Z,97511.75
2022-11-14T01:43:39.347Z,97502.81
2022-11-14T01:46:37.762Z,97501.13
2022-11-14T01:49:45.236Z,97506.41
2022-11-14T01:52:37.810Z,97502.75
2022-11-14T01:55:24.575Z,97494.47
2022-11-14T01:58:11.733Z,97496.50
2022-11-14T02:00:59.045Z,97498.34
2022-11-14T02:03:50.260Z,97485.06
2022-11-14T02:06:38.291Z,97485.88
2022-11-14T02:09:26.175Z,97480.72
2022-11-14T02:12:15.829Z,97481.41
2022-11-14T02:15:02.777Z,97484.06
2022-11-14T02:17:49.553Z,97473.13
2022-11-14T02:20:43.402Z,97472.97
2022-11-14T02:23:32.781Z,97466.22
2022-11-14T02:26:21.722Z,97481.91
2022-11-14T02:29:11.183Z,97480.72
2022-11-14T02:31:58.107Z,97481.03
2022-11-14T02:34:44.562Z,97482.56
2022-11-14T02:37:31.477Z,97478.44
2022-11-14T02:40:18.290Z,97476.31
2022-11-14T02:43:05.296Z,97482.28
2022-11-14T02:45:52.103Z,97472.50
2022-11-14T02:48:38.541Z,97465.69
2022-11-14T02:51:25.141Z,97475.63
2022-11-14T02:54:11.907Z,97465.84
2022-11-14T02:56:58.730Z,97464.34
2022-11-14T02:59:45.173Z,97464.78
2022-11-14T03:02:31.764Z,97456.66
2022-11-14T03:05:18.402Z,97462.34
2022-11-14T03:08:04.844Z,97458.69
2022-11-14T03:10:51.539Z,97459.50
2022-11-14T03:13:38.324Z,97459.50
2022-11-14T03:16:24.908Z,97456.72
2022-11-14T03:19:11.571Z,97462.03
2022-11-14T03:21:58.150Z,97456.56
2022-11-14T03:24:44.836Z,97453.91
2022-11-14T03:27:31.617Z,97455.72
2022-11-14T03:30:18.474Z,97456.72
2022-11-14T03:33:04.864Z,97445.63
2022-11-14T03:35:52.651Z,97444.78
2022-11-14T03:38:39.189Z,97437.97
2022-11-14T03:41:25.898Z,97444.44
2022-11-14T03:44:12.462Z,97434.63
2022-11-14T03:46:59.029Z,97435.13
2022-11-14T03:49:45.465Z,97428.47
2022-11-14T03:52:31.905Z,97419.63
2022-11-14T03:55:18.925Z,97421.31
2022-11-14T03:58:05.398Z,97410.53
2022-11-14T04:00:52.373Z,97399.41
2022-11-14T04:03:38.755Z,97395.06
2022-11-14T04:06:25.057Z,97404.03
2022-11-14T04:09:11.875Z,97403.50
2022-11-14T04:11:58.540Z,97402.34
2022-11-14T04:14:45.246Z,97426.41
2022-11-14T04:17:35.680Z,97426.94
2022-11-14T04:20:25.578Z,97429.13
2022-11-14T04:23:12.471Z,97429.13
2022-11-14T04:25:59.055Z,97422.66
2022-11-14T04:28:45.737Z,97415.53
2022-11-14T04:31:32.414Z,97415.53
2022-11-14T04:34:18.979Z,97423.63
2022-11-14T04:37:05.284Z,97412.34
2022-11-14T04:39:51.991Z,97408.50
2022-11-14T04:42:38.410Z,97412.59
2022-11-14T04:45:25.153Z,97415.56
2022-11-14T04:48:12.156Z,97418.69
2022-11-14T04:50:58.819Z,97405.38
2022-11-14T04:53:45.404Z,97413.88
2022-11-14T04:56:31.968Z,97392.63
2022-11-14T04:59:20.800Z,97374.22
2022-11-14T05:02:07.709Z,97367.06
2022-11-14T05:04:54.411Z,97359.25
2022-11-14T05:07:40.835Z,97356.41
2022-11-14T05:10:27.538Z,97375.44
2022-11-14T05:13:13.979Z,97383.38
2022-11-14T05:16:01.601Z,97364.81
2022-11-14T05:18:48.163Z,97359.84
2022-11-14T05:21:35.088Z,97356.19
2022-11-14T05:24:21.786Z,97361.50
2022-11-14T05:27:08.454Z,97367.66
2022-11-14T05:29:55.616Z,97359.69
2022-11-14T05:32:42.313Z,97364.81
2022-11-14T05:35:28.766Z,97353.91
2022-11-14T05:38:15.182Z,97335.81
2022-11-14T05:41:08.252Z,97344.59
2022-11-14T05:43:54.929Z,97334.97
2022-11-14T05:46:41.591Z,97340.44
2022-11-14T05:49:28.180Z,97344.75
2022-11-14T05:52:16.037Z,97360.66
2022-11-14T05:55:02.618Z,97347.94
2022-11-14T05:57:49.527Z,97349.44
2022-11-14T06:00:42.409Z,97354.44
2022-11-14T06:03:41.248Z,97359.44
2022-11-14T06:06:27.572Z,97362.25
2022-11-14T06:09:14.494Z,97359.91
2022-11-14T06:12:01.176Z,97355.88
2022-11-14T06:14:47.765Z,97371.81
2022-11-14T06:17:34.301Z,97378.41
2022-11-14T06:20:21.617Z,97374.47
2022-11-14T06:23:08.146Z,97384.22
2022-11-14T06:26:06.853Z,97381.41
2022-11-14T06:28:54.257Z,97384.22
2022-11-14T06:31:40.913Z,97384.31
2022-11-14T06:34:27.858Z,97374.75
2022-11-14T06:37:14.299Z,97380.59
2022-11-14T06:40:00.743Z,97369.84
2022-11-14T06:42:47.284Z,97365.44
2022-11-14T06:45:33.872Z,97365.81
2022-11-14T06:48:20.435Z,97375.97
2022-11-14T06:51:07.597Z,97377.31
2022-11-14T06:53:54.155Z,97362.78
2022-11-14T06:56:40.698Z,97367.06
2022-11-14T06:59:27.524Z,97363.16
2022-11-14T07:02:20.453Z,97377.13
2022-11-14T07:05:08.936Z,97369.06
2022-11-14T07:07:57.390Z,97367.75
2022-11-14T07:10:44.070Z,97371.13
2022-11-14T07:13:31.714Z,97373.63
2022-11-14T07:16:19.237Z,97366.78
2022-11-14T07:19:09.301Z,97360.03
2022-11-14T07:21:55.757Z,97346.97
2022-11-14T07:24:42.543Z,97356.25
2022-11-14T07:27:28.847Z,97366.69
2022-11-14T07:30:16.032Z,97367.00
2022-11-14T07:33:02.336Z,97373.66
2022-11-14T07:35:50.596Z,97361.06
2022-11-14T07:38:38.578Z,97363.06
2022-11-14T07:41:25.994Z,97363.59
2022-11-14T07:44:14.272Z,97373.13
2022-11-14T07:47:01.393Z,97388.56
2022-11-14T07:49:50.001Z,97385.41
2022-11-14T07:52:41.492Z,97386.97
2022-11-14T07:55:28.661Z,97392.97
2022-11-14T07:58:16.545Z,97403.81
2022-11-14T08:01:05.395Z,97410.63
2022-11-14T08:03:54.926Z,97401.19
2022-11-14T08:06:41.495Z,97411.81
2022-11-14T08:09:28.408Z,97423.16
2022-11-14T08:12:14.611Z,97424.81
2022-11-14T08:15:01.436Z,97431.66
2022-11-14T08:17:48.122Z,97425.25
2022-11-14T08:20:34.563Z,97424.41
2022-11-14T08:23:21.122Z,97430.72
2022-11-14T08:26:07.565Z,97429.91
2022-11-14T08:28:54.950Z,97425.06
2022-11-14T08:31:41.270Z,97436.22
2022-11-14T08:34:29.412Z,97432.53
2022-11-14T08:37:16.315Z,97441.19
2022-11-14T08:40:04.335Z,97444.72
2022-11-14T08:42:51.748Z,97449.88
2022-11-14T08:45:38.642Z,97442.19
2022-11-14T08:48:25.344Z,97447.22
2022-11-14T08:51:11.913Z,97443.22
2022-11-14T08:53:58.929Z,97449.84
2022-11-14T08:56:45.522Z,97454.00
2022-11-14T08:59:32.776Z,97450.34
2022-11-14T09:02:19.239Z,97458.50
2022-11-14T09:05:06.142Z,97455.16
2022-11-14T09:07:52.825Z,97465.97
2022-11-14T09:10:39.625Z,97453.16
2022-11-14T09:13:27.704Z,97441.16
2022-11-14T09:16:14.792Z,97452.97
2022-11-14T09:19:01.496Z,97449.09
2022-11-14T09:21:47.918Z,97448.78
2022-11-14T09:24:34.718Z,97447.09
2022-11-14T09:27:21.641Z,97449.72
2022-11-14T09:30:08.924Z,97443.88
2022-11-14T09:33:02.836Z,97438.03
2022-11-14T09:36:01.129Z,97448.66
2022-11-14T09:38:47.951Z,97428.81
2022-11-14T09:41:56.576Z,97439.44
2022-11-14T09:45:07.394Z,97433.22
2022-11-14T09:48:07.657Z,97424.88
2022-11-14T09:51:03.924Z,97435.47
2022-11-14T09:54:27.568Z,97423.09
2022-11-14T09:57:20.252Z,97422.53
2022-11-14T10:00:15.193Z,97424.50
2022-11-14T10:03:23.956Z,97416.97
2022-11-14T10:06:28.883Z,97413.41
2022-11-14T10:09:51.342Z,97410.19
2022-11-14T10:12:56.262Z,97412.97
2022-11-14T10:16:01.771Z,97413.25
2022-11-14T10:19:10.934Z,97416.22
2022-11-14T10:22:06.094Z,97416.31
2022-11-14T10:25:14.538Z,97408.25
2022-11-14T10:28:37.899Z,97408.19
2022-11-14T10:31:45.465Z,97402.56
2022-11-14T10:34:47.647Z,97398.81
2022-11-14T10:37:36.739Z,97396.03
2022-11-14T10:40:42.114Z,97408.50
2022-11-14T10:43:51.011Z,97392.91
2022-11-14T10:46:48.386Z,97396.53
2022-11-14T10:49:37.320Z,97401.34
2022-11-14T10:52:41.924Z,97398.47
2022-11-14T10:55:57.492Z,97400.31
2022-11-14T10:58:47.829Z,97403.81
2022-11-14T11:01:41.055Z,97386.28
2022-11-14T11:04:32.796Z,97385.47
2022-11-14T11:07:47.320Z,97385.47
2022-11-14T11:10:59.922Z,97385.13
2022-11-14T11:13:59.904Z,97374.97
2022-11-14T11:16:48.145Z,97381.34
2022-11-14T11:19:34.837Z,97378.44
2022-11-14T11:22:36.519Z,97373.09
2022-11-14T11:25:26.695Z,97380.41
2022-11-14T11:28:19.858Z,97374.03
2022-11-14T11:31:10.119Z,97378.56
2022-11-14T11:34:03.043Z,97373.22
2022-11-14T11:37:14.147Z,97362.34
2022-11-14T11:40:06.426Z,97363.50
2022-11-14T11:46:28.759Z,97354.66
2022-11-14T11:49:23.938Z,97353.81
2022-11-14T11:52:46.259Z,97353.25
2022-11-14T11:55:51.326Z,97354.38
2022-11-14T11:58:57.549Z,97352.97
2022-11-14T12:01:44.349Z,97342.25
2022-11-14T12:04:31.515Z,97343.34
2022-11-14T12:07:33.701Z,97350.00
2022-11-14T12:10:29.117Z,97356.97
2022-11-14T12:14:00.079Z,97344.19
2022-11-14T12:17:16.523Z,97358.78
2022-11-14T12:20:27.468Z,97344.63
2022-11-14T12:23:34.670Z,97341.13
2022-11-14T12:26:54.692Z,97344.50
2022-11-14T12:30:09.701Z,97351.53
2022-11-14T12:33:39.725Z,97344.59
2022-11-14T12:36:33.846Z,97340.97
2022-11-14T12:39:31.065Z,97346.38
2022-11-14T12:42:21.827Z,97341.06
2022-11-14T12:45:43.090Z,97342.69
2022-11-14T12:48:38.927Z,97340.75
2022-11-14T12:51:25.531Z,97347.16
2022-11-14T12:54:51.510Z,97346.31
2022-11-14T12:57:55.930Z,97354.22
2022-11-14T13:00:45.148Z,97347.00
2022-11-14T13:04:09.848Z,97347.19
2022-11-14T13:07:44.652Z,97344.31
2022-11-14T13:10:40.098Z,97347.00
2022-11-14T13:13:45.520Z,97346.44
2022-11-14T13:16:51.286Z,97338.00
2022-11-14T13:20:05.563Z,97344.00
2022-11-14T13:22:52.127Z,97340.13
2022-11-14T13:25:38.914Z,97332.28
2022-11-14T13:28:37.963Z,97327.38
2022-11-14T13:31:37.716Z,97336.84
2022-11-14T13:34:51.780Z,97329.75
2022-11-14T13:38:01.973Z,97336.59
2022-11-14T13:41:27.445Z,97327.16
2022-11-14T13:44:47.586Z,97333.19
2022-11-14T13:48:11.114Z,97333.03
2022-11-14T13:51:28.642Z,97336.63
2022-11-14T13:54:18.519Z,97342.06
2022-11-14T13:57:42.660Z,97336.97
2022-11-14T14:00:47.988Z,97335.41
2022-11-14T14:04:07.302Z,97331.72
2022-11-14T14:07:33.979Z,97327.88
2022-11-14T14:10:20.255Z,97328.75
2022-11-14T14:13:30.402Z,97322.81
2022-11-14T14:16:41.864Z,97322.84
2022-11-14T14:19:52.304Z,97322.03
2022-11-14T14:23:07.066Z,97318.72
2022-11-14T14:26:00.119Z,97314.78
2022-11-14T14:29:00.542Z,97318.31
2022-11-14T14:31:50.276Z,97321.00
2022-11-14T14:34:36.600Z,97319.78
2022-11-14T14:37:27.489Z,97317.91
2022-11-14T14:40:31.426Z,97316.69
2022-11-14T14:43:35.404Z,97319.38
2022-11-14T14:46:32.516Z,97322.22
2022-11-14T14:49:37.790Z,97318.91
2022-11-14T14:52:33.134Z,97319.53
2022-11-14T14:55:32.997Z,97321.59
2022-11-14T14:58:22.943Z,97332.09
2022-11-14T15:01:18.910Z,97324.22
2022-11-14T15:04:14.165Z,97323.53
2022-11-14T15:07:00.566Z,97321.44
2022-11-14T15:09:57.873Z,97324.50
2022-11-14T15:12:45.373Z,97329.66
2022-11-14T15:15:33.874Z,97329.66
2022-11-14T15:18:31.733Z,97330.88
2022-11-14T15:21:23.203Z,97333.34
2022-11-14T15:24:22.251Z,97327.97
2022-11-14T15:27:18.632Z,97332.91
2022-11-14T15:30:19.618Z,97332.22
2022-11-14T15:33:29.339Z,97325.03
2022-11-14T15:36:17.947Z,97340.06
2022-11-14T15:39:22.858Z,97332.81
2022-11-14T15:42:29.445Z,97332.75
2022-11-14T15:45:39.311Z,97337.69
2022-11-14T15:48:26.115Z,97339.72
2022-11-14T15:51:12.651Z,97339.03
2022-11-14T15:53:59.351Z,97343.13
2022-11-14T15:56:45.657Z,97355.91
2022-11-14T15:59:32.485Z,97353.38
2022-11-14T16:02:32.718Z,97355.78
2022-11-14T16:05:27.935Z,97355.34
2022-11-14T16:08:14.830Z,97350.78
2022-11-14T16:11:01.172Z,97358.34
2022-11-14T16:13:47.712Z,97346.81
2022-11-14T16:16:34.517Z,97348.84
2022-11-14T16:19:22.058Z,97350.25
2022-11-14T16:22:18.205Z,97347.94
2022-11-14T16:25:05.383Z,97356.19
2022-11-14T16:27:51.827Z,97353.91
2022-11-14T16:30:38.514Z,97358.97
2022-11-14T16:33:24.958Z,97357.34
2022-11-14T16:36:12.696Z,97361.22
2022-11-14T16:39:02.161Z,97363.25
2022-11-14T16:41:48.820Z,97359.94
2022-11-14T16:44:41.092Z,97371.69
2022-11-14T16:47:32.146Z,97368.38
2022-11-14T16:50:20.513Z,97367.75
2022-11-14T16:53:07.214Z,97370.59
2022-11-14T16:55:53.514Z,97382.53
2022-11-14T16:58:42.137Z,97379.41
2022-11-14T17:01:28.632Z,97385.59
2022-11-14T17:04:15.138Z,97383.72
2022-11-14T17:07:01.623Z,97391.50
2022-11-14T17:09:48.276Z,97387.16
2022-11-14T17:12:34.930Z,97393.75
2022-11-14T17:15:21.276Z,97389.03
2022-11-14T17:18:07.839Z,97394.38
2022-11-14T17:20:54.275Z,97397.88
2022-11-14T17:23:41.082Z,97400.19
2022-11-14T17:26:28.346Z,97405.31
2022-11-14T17:29:15.025Z,97406.38
2022-11-14T17:32:01.588Z,97403.69
2022-11-14T17:34:48.511Z,97406.00
2022-11-14T17:37:35.200Z,97401.28
2022-11-14T17:40:21.774Z,97404.59
2022-11-14T17:43:08.341Z,97412.41
2022-11-14T17:45:58.032Z,97399.41
2022-11-14T17:48:45.188Z,97398.78
2022-11-14T17:51:32.569Z,97395.28
2022-11-14T17:54:19.267Z,97397.75
2022-11-14T17:57:06.674Z,97398.78
2022-11-14T17:59:53.479Z,97404.13
2022-11-14T18:02:40.259Z,97399.97
2022-11-14T18:05:26.716Z,97397.09
2022-11-14T18:08:14.607Z,97390.56
2022-11-14T18:11:03.068Z,97381.69
2022-11-14T18:13:53.377Z,97382.31
2022-11-14T18:17:10.415Z,97391.38
2022-11-14T18:19:46.515Z,97395.66
2022-11-14T18:22:32.976Z,97397.50
2022-11-14T18:25:19.541Z,97402.47
2022-11-14T18:28:05.980Z,97391.75
2022-11-14T18:30:56.870Z,97397.56
2022-11-14T18:33:43.889Z,97401.91
2022-11-14T18:36:30.334Z,97394.69
2022-11-14T18:39:17.036Z,97397.38
2022-11-14T18:42:03.835Z,97398.59
2022-11-14T18:44:50.642Z,97397.28
2022-11-14T18:47:37.062Z,97391.50
2022-11-14T18:50:23.762Z,97388.56
2022-11-14T18:53:10.307Z,97391.44
2022-11-14T18:55:56.887Z,97386.91
2022-11-14T18:58:44.430Z,97384.44
2022-11-14T19:01:32.259Z,97388.28
2022-11-14T19:04:19.815Z,97391.19
2022-11-14T19:07:06.298Z,97395.06
2022-11-14T19:09:53.129Z,97393.59
2022-11-14T19:12:39.988Z,97392.78
2022-11-14T19:15:26.429Z,97393.78
2022-11-14T19:18:13.110Z,97395.81
2022-11-14T19:21:02.077Z,97398.47
2022-11-14T19:23:50.541Z,97397.66
2022-11-14T19:26:37.460Z,97397.22
2022-11-14T19:29:23.924Z,97405.06
2022-11-14T19:32:10.371Z,97405.88
2022-11-14T19:34:57.171Z,97399.50
2022-11-14T19:37:43.829Z,97405.28
2022-11-14T19:40:31.017Z,97408.25
2022-11-14T19:43:18.998Z,97412.19
2022-11-14T19:46:07.117Z,97412.28
2022-11-14T19:49:01.361Z,97414.56
2022-11-14T19:51:49.004Z,97415.03
2022-11-14T19:54:35.470Z,97414.41
2022-11-14T19:57:22.030Z,97411.72
2022-11-14T20:00:09.326Z,97407.56
2022-11-14T20:02:56.128Z,97412.06
2022-11-14T20:05:42.557Z,97412.47
2022-11-14T20:08:29.363Z,97415.16
2022-11-14T20:11:16.501Z,97415.78
2022-11-14T20:14:05.663Z,97412.06
2022-11-14T20:16:52.054Z,97416.63
2022-11-14T20:19:38.732Z,97411.91
2022-11-14T20:22:25.273Z,97415.22
2022-11-14T20:25:15.828Z,97409.22
2022-11-14T20:28:02.978Z,97415.84
2022-11-14T20:30:49.542Z,97413.81
2022-11-14T20:33:41.985Z,97411.97
2022-11-14T20:36:38.962Z,97416.69
2022-11-14T20:39:35.277Z,97410.94
2022-11-14T20:42:21.692Z,97421.28
2022-11-14T20:45:09.094Z,97421.75
2022-11-14T20:47:55.897Z,97426.84
2022-11-14T20:50:42.607Z,97432.19
2022-11-14T20:53:29.479Z,97424.59
2022-11-14T20:56:17.649Z,97420.91
2022-11-14T20:59:04.214Z,97419.72
2022-11-14T21:01:50.917Z,97422.56
2022-11-14T21:04:37.453Z,97419.88
2022-11-14T21:07:23.913Z,97416.19
2022-11-14T21:10:29.303Z,97420.06
2022-11-14T21:13:37.347Z,97418.16
2022-11-14T21:16:39.490Z,97415.84
2022-11-14T21:19:26.307Z,97418.94
2022-11-14T21:22:13.470Z,97416.44
2022-11-14T21:25:00.754Z,97417.66
2022-11-14T21:27:47.305Z,97411.91
2022-11-14T21:30:34.840Z,97404.97
2022-11-14T21:33:21.403Z,97408.09
2022-11-14T21:36:37.573Z,97406.69
2022-11-14T21:39:17.741Z,97401.78
2022-11-14T21:42:04.588Z,97400.31
2022-11-14T21:44:51.297Z,97403.75
2022-11-14T21:47:37.833Z,97396.09
2022-11-14T21:50:24.637Z,97395.47
2022-11-14T21:53:16.222Z,97399.53
2022-11-14T21:56:23.323Z,97398.91
2022-11-14T21:59:16.379Z,97390.44
2022-11-14T22:02:21.769Z,97383.22
2022-11-14T22:05:08.709Z,97377.22
2022-11-14T22:07:55.494Z,97379.72
2022-11-14T22:10:42.075Z,97381.19
2022-11-14T22:13:31.094Z,97373.97
2022-11-14T22:16:19.656Z,97375.00
2022-11-14T22:19:06.572Z,97372.69
2022-11-14T22:21:54.427Z,97374.38
2022-11-14T22:24:40.904Z,97379.31
2022-11-14T22:27:27.570Z,97384.31
2022-11-14T22:30:14.255Z,97386.97
2022-11-14T22:33:00.797Z,97378.13
2022-11-14T22:35:47.618Z,97386.41
2022-11-14T22:38:36.227Z,97384.34
2022-11-14T22:41:33.434Z,97384.13
2022-11-14T22:44:20.159Z,97376.53
2022-11-14T22:47:06.604Z,97384.75
2022-11-14T22:49:54.604Z,97381.22
2022-11-14T22:52:41.018Z,97380.81
2022-11-14T22:55:27.613Z,97384.03
2022-11-14T22:58:14.981Z,97381.13
2022-11-14T23:01:02.646Z,97387.47
2022-11-14T23:03:56.988Z,97385.63
2022-11-14T23:06:43.309Z,97382.94
2022-11-14T23:09:30.135Z,97382.50
2022-11-14T23:12:16.575Z,97385.38
2022-11-14T23:15:03.477Z,97379.56
2022-11-14T23:17:49.925Z,97386.97
2022-11-14T23:20:36.627Z,97388.16
2022-11-14T23:23:23.167Z,97395.16
2022-11-14T23:26:18.008Z,97380.13
2022-11-14T23:29:05.077Z,97376.44
2022-11-14T23:31:51.493Z,97379.28
2022-11-14T23:34:38.195Z,97373.75
2022-11-14T23:37:24.739Z,97378.75
2022-11-14T23:40:11.926Z,97381.59
2022-11-14T23:42:58.488Z,97380.13
2022-11-14T23:45:45.270Z,97372.72
2022-11-14T23:48:32.087Z,97376.06
2022-11-14T23:51:18.662Z,97364.97
2022-11-14T23:54:05.335Z,97372.81
2022-11-14T23:56:51.998Z,97375.50
2022-11-14T23:59:38.956Z,97370.13
